createdAt,value
2019-04-20T00:04:30.414Z,13.00
2019-04-20T00:09:34.879Z,12.90
2019-04-20T00:14:38.759Z,13.00
2019-04-20T00:19:46.987Z,13.10
2019-04-20T00:24:58.063Z,13.30
2019-04-20T00:30:25.087Z,13.10
2019-04-20T00:35:06.308Z,13.00
2019-04-20T00:40:10.350Z,12.80
2019-04-20T00:45:20.396Z,12.60
2019-04-20T00:50:34.313Z,12.00
2019-04-20T00:55:25.267Z,12.00
2019-04-20T01:00:58.254Z,12.00
2019-04-20T01:05:59.721Z,12.00
2019-04-20T01:10:48.053Z,12.10
2019-04-20T01:15:55.321Z,12.20
2019-04-20T01:20:53.724Z,12.10
2019-04-20T01:26:05.471Z,12.00
2019-04-20T01:31:15.755Z,11.60
2019-04-20T01:36:34.960Z,11.80
2019-04-20T01:41:16.101Z,11.60
2019-04-20T01:46:23.166Z,11.40
2019-04-20T01:51:30.467Z,11.50
2019-04-20T01:56:43.483Z,11.60
2019-04-20T02:01:59.254Z,11.60
2019-04-20T02:07:02.947Z,11.40
2019-04-20T02:12:11.150Z,11.20
2019-04-20T02:17:25.160Z,11.40
2019-04-20T02:22:34.156Z,11.50
2019-04-20T02:27:29.977Z,11.50
2019-04-20T02:33:10.169Z,11.10
2019-04-20T02:38:32.033Z,10.80
2019-04-20T02:48:13.887Z,10.80
2019-04-20T02:53:36.393Z,10.80
2019-04-20T02:58:25.478Z,10.70
2019-04-20T03:03:13.426Z,10.60
2019-04-20T03:08:28.203Z,10.60
2019-04-20T03:13:36.833Z,10.60
2019-04-20T03:18:42.879Z,10.70
2019-04-20T03:23:50.912Z,10.70
2019-04-20T03:28:54.259Z,10.40
2019-04-20T03:34:25.515Z,10.20
2019-04-20T03:39:03.942Z,10.20
2019-04-20T03:43:54.109Z,9.60
2019-04-20T03:49:15.761Z,9.70
2019-04-20T03:54:22.296Z,9.70
2019-04-20T03:59:35.565Z,9.70
2019-04-20T04:09:37.054Z,9.50
2019-04-20T04:14:34.362Z,9.60
2019-04-20T04:19:44.485Z,9.60
2019-04-20T04:24:56.989Z,9.30
2019-04-20T04:30:08.134Z,9.10
2019-04-20T04:35:10.029Z,9.10
2019-04-20T04:40:26.464Z,9.10
2019-04-20T04:45:10.687Z,9.30
2019-04-20T04:50:16.402Z,9.60
2019-04-20T04:55:25.725Z,9.20
2019-04-20T05:00:28.219Z,8.50
2019-04-20T05:06:00.483Z,8.50
2019-04-20T05:10:45.752Z,8.80
2019-04-20T05:16:03.504Z,9.00
2019-04-20T05:21:17.618Z,9.00
2019-04-20T05:26:31.632Z,9.10
2019-04-20T05:31:13.792Z,9.50
2019-04-20T05:36:37.411Z,9.80
2019-04-20T05:41:41.843Z,10.00
2019-04-20T05:46:50.449Z,10.00
2019-04-20T05:52:11.390Z,10.20
2019-04-20T05:57:15.001Z,10.30
2019-04-20T06:02:18.422Z,10.50
2019-04-20T06:07:21.132Z,10.80
2019-04-20T06:12:19.945Z,11.10
2019-04-20T06:17:34.539Z,11.40
2019-04-20T06:22:40.774Z,11.50
2019-04-20T06:27:45.090Z,11.60
2019-04-20T06:33:31.085Z,11.60
2019-04-20T06:38:49.694Z,11.60
2019-04-20T06:43:41.166Z,11.70
2019-04-20T06:48:49.701Z,11.70
2019-04-20T06:53:47.482Z,12.00
2019-04-20T06:58:58.937Z,12.30
2019-04-20T07:04:15.428Z,12.70
2019-04-20T07:09:07.543Z,12.60
2019-04-20T07:13:55.695Z,13.00
2019-04-20T07:19:15.248Z,12.80
2019-04-20T07:24:40.249Z,12.60
2019-04-20T07:29:41.114Z,12.70
2019-04-20T07:34:47.574Z,13.00
2019-04-20T07:39:53.739Z,13.30
2019-04-20T07:45:01.259Z,12.70
2019-04-20T07:49:58.337Z,13.00
2019-04-20T07:55:29.568Z,13.30
2019-04-20T08:00:13.395Z,13.40
2019-04-20T08:05:29.611Z,13.90
2019-04-20T08:10:35.318Z,14.20
2019-04-20T08:20:52.866Z,15.30
2019-04-20T08:25:47.451Z,15.60
2019-04-20T08:31:14.093Z,15.50
2019-04-20T08:36:26.993Z,16.70
2019-04-20T08:41:24.848Z,17.10
2019-04-20T08:46:47.698Z,17.60
2019-04-20T08:51:52.468Z,19.50
2019-04-20T08:56:36.153Z,19.20
2019-04-20T09:01:34.159Z,18.00
2019-04-20T09:06:56.491Z,18.90
2019-04-20T09:12:05.305Z,19.70
2019-04-20T09:16:54.541Z,20.10
2019-04-20T09:22:26.626Z,19.80
2019-04-20T09:27:29.506Z,18.30
2019-04-20T09:32:45.237Z,18.40
2019-04-20T09:38:03.136Z,18.00
2019-04-20T09:42:52.626Z,18.40
2019-04-20T09:47:58.128Z,19.00
2019-04-20T09:53:17.096Z,18.90
2019-04-20T09:58:45.172Z,18.60
2019-04-20T10:03:31.778Z,19.00
2019-04-20T10:08:43.551Z,19.20
2019-04-20T10:13:40.782Z,19.10
2019-04-20T10:18:50.064Z,19.40
2019-04-20T10:23:50.361Z,19.40
2019-04-20T10:34:54.754Z,19.80
2019-04-20T10:39:58.602Z,20.10
2019-04-20T10:45:03.069Z,20.20
2019-04-20T10:50:09.127Z,20.60
2019-04-20T10:55:14.558Z,20.00
2019-04-20T11:00:25.612Z,20.70
2019-04-20T11:05:30.686Z,21.20
2019-04-20T11:10:48.260Z,22.10
2019-04-20T11:15:40.297Z,22.40
2019-04-20T11:20:43.922Z,23.00
2019-04-20T11:25:48.322Z,23.20
2019-04-20T11:30:52.227Z,22.00
2019-04-20T11:35:57.073Z,21.70
2019-04-20T11:41:10.355Z,22.30
2019-04-20T11:46:06.901Z,22.40
2019-04-20T11:51:11.687Z,22.40
2019-04-20T11:56:22.463Z,22.10
2019-04-20T12:01:26.963Z,22.60
2019-04-20T12:06:28.940Z,23.30
2019-04-20T12:11:45.404Z,23.50
2019-04-20T12:16:37.979Z,23.30
2019-04-20T12:21:42.166Z,23.50
2019-04-20T12:26:47.024Z,22.80
2019-04-20T12:31:55.419Z,22.50
2019-04-20T12:36:58.274Z,22.60
2019-04-20T12:42:04.753Z,23.60
2019-04-20T12:47:07.754Z,23.80
2019-04-20T12:52:12.478Z,24.10
2019-04-20T12:57:16.519Z,24.80
2019-04-20T13:02:20.481Z,24.70
2019-04-20T13:07:24.811Z,25.00
2019-04-20T13:12:34.253Z,25.60
2019-04-20T13:17:38.052Z,25.30
2019-04-20T13:22:41.658Z,25.40
2019-04-20T13:27:45.397Z,25.30
2019-04-20T13:32:49.856Z,25.30
2019-04-20T13:37:54.157Z,25.20
2019-04-20T13:42:57.861Z,25.90
2019-04-20T13:48:01.498Z,25.50
2019-04-20T13:53:05.424Z,25.70
2019-04-20T13:58:11.669Z,25.60
2019-04-20T14:03:18.434Z,25.90
2019-04-20T14:08:25.487Z,26.80
2019-04-20T14:13:36.574Z,26.50
2019-04-20T14:18:35.378Z,25.80
2019-04-20T14:23:39.123Z,25.30
2019-04-20T14:28:42.966Z,25.60
2019-04-20T14:33:46.804Z,26.00
2019-04-20T14:38:50.437Z,25.00
2019-04-20T14:43:55.275Z,25.50
2019-04-20T14:48:59.018Z,25.50
2019-04-20T14:54:03.353Z,26.00
2019-04-20T14:59:09.619Z,26.30
2019-04-20T15:04:16.806Z,26.50
2019-04-20T15:09:18.905Z,25.20
2019-04-20T15:14:22.835Z,25.80
2019-04-20T15:19:47.596Z,25.50
2019-04-20T15:24:51.612Z,25.60
2019-04-20T15:29:56.161Z,25.80
2019-04-20T15:35:00.693Z,25.60
2019-04-20T15:40:06.463Z,25.30
2019-04-20T15:45:11.449Z,25.40
2019-04-20T15:50:16.016Z,25.40
2019-04-20T15:55:25.419Z,25.60
2019-04-20T16:00:26.692Z,25.10
2019-04-20T16:05:37.919Z,25.20
2019-04-20T16:10:41.538Z,25.50
2019-04-20T16:15:45.560Z,25.50
2019-04-20T16:20:59.436Z,25.20
2019-04-20T16:26:15.467Z,24.90
2019-04-20T16:31:20.592Z,25.00
2019-04-20T16:36:24.326Z,24.50
2019-04-20T16:41:28.424Z,24.70
2019-04-20T16:46:32.274Z,24.50
2019-04-20T16:51:36.646Z,24.50
2019-04-20T16:56:42.471Z,23.70
2019-04-20T17:01:46.653Z,23.60
2019-04-20T17:06:52.099Z,23.60
2019-04-20T17:11:55.813Z,23.50
2019-04-20T17:17:00.013Z,23.50
2019-04-20T17:22:05.505Z,23.70
2019-04-20T17:27:28.765Z,24.20
2019-04-20T17:32:34.338Z,23.90
2019-04-20T17:37:41.849Z,23.50
2019-04-20T17:42:53.054Z,23.80
2019-04-20T17:48:04.686Z,23.40
2019-04-20T17:53:08.910Z,23.30
2019-04-20T17:58:01.571Z,23.00
2019-04-20T18:03:20.881Z,22.10
2019-04-20T18:08:29.758Z,21.90
2019-04-20T18:13:22.486Z,21.50
2019-04-20T18:18:41.654Z,21.50
2019-04-20T18:23:36.280Z,21.60
2019-04-20T18:28:59.229Z,21.30
2019-04-20T18:33:44.375Z,21.50
2019-04-20T18:38:54.263Z,21.30
2019-04-20T18:43:57.372Z,21.20
2019-04-20T18:49:14.853Z,21.30
2019-04-20T18:54:08.295Z,21.30
2019-04-20T18:59:09.697Z,20.90
2019-04-20T19:04:14.165Z,20.40
2019-04-20T19:09:24.225Z,20.30
2019-04-20T19:14:34.978Z,20.30
2019-04-20T19:19:41.395Z,20.00
2019-04-20T19:24:42.917Z,19.60
2019-04-20T19:29:55.006Z,19.30
2019-04-20T19:35:01.565Z,19.10
2019-04-20T19:40:06.758Z,19.10
2019-04-20T19:45:30.743Z,19.40
2019-04-20T19:50:36.687Z,19.20
2019-04-20T19:55:31.783Z,19.40
2019-04-20T20:00:46.394Z,18.90
2019-04-20T20:05:51.841Z,18.70
2019-04-20T20:10:56.404Z,18.60
2019-04-20T20:16:06.057Z,18.40
2019-04-20T20:21:20.357Z,18.60
2019-04-20T20:26:19.613Z,18.20
2019-04-20T20:31:24.543Z,18.40
2019-04-20T20:36:23.869Z,18.70
2019-04-20T20:41:33.165Z,18.90
2019-04-20T20:46:48.790Z,18.60
2019-04-20T20:52:02.411Z,18.50
2019-04-20T20:56:55.580Z,18.30
2019-04-20T21:02:03.851Z,18.10
2019-04-20T21:06:55.955Z,17.40
2019-04-20T21:12:04.816Z,17.20
2019-04-20T21:17:15.640Z,17.10
2019-04-20T21:22:17.054Z,16.30
2019-04-20T21:27:19.824Z,16.30
2019-04-20T21:32:23.364Z,16.30
2019-04-20T21:37:27.241Z,15.80
2019-04-20T21:42:39.527Z,16.00
2019-04-20T21:47:40.866Z,16.20
2019-04-20T21:52:46.778Z,16.00
2019-04-20T21:57:51.947Z,16.30
2019-04-20T22:03:00.228Z,16.30
2019-04-20T22:08:03.276Z,16.30
2019-04-20T22:13:06.293Z,16.30
2019-04-20T22:18:14.714Z,16.20
2019-04-20T22:23:32.899Z,16.10
2019-04-20T22:28:22.175Z,16.20
2019-04-20T22:33:32.895Z,16.20
2019-04-20T22:38:37.552Z,16.30
2019-04-20T22:43:40.399Z,16.30
2019-04-20T22:48:51.073Z,16.50
2019-04-20T22:54:03.806Z,16.60
2019-04-20T22:59:02.246Z,16.80
2019-04-20T23:04:01.101Z,16.80
2019-04-20T23:09:11.695Z,16.00
2019-04-20T23:14:14.343Z,16.00
2019-04-20T23:19:30.031Z,16.30
2019-04-20T23:24:23.744Z,15.60
2019-04-20T23:29:33.993Z,15.40
2019-04-20T23:34:34.603Z,15.70
2019-04-20T23:39:41.588Z,16.10
2019-04-20T23:44:57.660Z,16.20
2019-04-20T23:50:17.239Z,15.90
2019-04-20T23:55:11.238Z,15.20
